SE-0023 weather

Baggböle Airstrip
Västernorrlands län, Sweden

Public forecast

Using degrees Celsius for public forecast. Weather courtesy of forecast.io.

METAR (pilot weather report)

Closest report is Sundsvall-Härnösand Airport, 20.8 nm (38.6 km) NNE. Retrieved 2019/08/24 03:20 UTC (2 minutes ago):

ESNN 240320Z AUTO 26003KT 9999 NCD 09/08 Q1021

TAF (pilot weather forecast)

Forecast is more than 12 hours old.

Closest forecast is Sundsvall-Härnösand Airport, 20.8 nm (38.6 km) NNE. Retrieved 2016/05/29 09:33 UTC (3 years ago):

TAF TAF ESNN 290830Z 2909/3018 07006KT 9999 SCT045 BECMG 2913/2915 14010KT